Tiempo atmosférico en la estación meteorológica de Santa Susana, Barcelona (45 m.)



Fecha
DESCASC
Temp. máxima en grados centígrados (hora)
DESCASC
Temp. mínima en grados centígrados (hora)
DESCASC
Temp. media en grados centígrados
DESCASC
Racha de viento máxima en m/sg (hora)
DESCASC
Velocidad máxima media en intervalos de 10 minutos(hora)
DESCASC
Precipitaciones diarias en mm
DESCASC
Precipitaciones de 00:00 a 06:00 en mm
DESCASC
Precipitaciones de 06:00 a 12:00 en mm
DESCASC
Precipitaciones de 12:00 a 18:00 en mm
DESCASC
Precipitaciones de 18:00 a 24:00 en mm
DESCASC

Gráficas

Temp. máximas Temp. mínimas Temp. medias Precipitaciones Rachas de viento máximas Velocidades máximas media en intervalos de 10 minutos

Datos horarios

Fecha y hora oficial Temperatura (ºC) Velocidad del viento (km/h) Dirección del viento Racha (km/h) Dirección de racha Precipitación (mm) Presión (hPa) Tendencia (hPa) Humedad (%)
2019-06-20 23:00:00 18.7 3 Nordeste 9 Noroeste 0 -- -- 84
2019-06-20 22:00:00 19.1 3 Nordeste 8 Nordeste 0 -- -- 86
2019-06-20 21:00:00 19.9 0 Calma 12 Nordeste 0 -- -- 81
2019-06-20 20:00:00 21.5 5 Nordeste 15 Sudoeste 0 -- -- 72
2019-06-20 19:00:00 21.9 10 Sudoeste 20 Sudoeste 0 -- -- 73
2019-06-20 18:00:00 22.1 6 Sudoeste 25 Sudoeste 0 -- -- 72
2019-06-20 17:00:00 24.7 3 Norte 21 Nordeste 0 -- -- 54
2019-06-20 16:00:00 24.9 0 Calma 26 Nordeste 0 -- -- 54
2019-06-20 15:00:00 26.1 9 Nordeste 25 Nordeste 0 -- -- 51
2019-06-20 14:00:00 26.3 5 Nordeste 24 Este 0 -- -- 52
2019-06-20 13:00:00 24.7 18 Nordeste 27 Nordeste 0 -- -- 56
2019-06-20 12:00:00 25.7 7 Nordeste 17 Este 0 -- -- 57
2019-06-20 11:00:00 23.1 10 Nordeste 18 Nordeste 0 -- -- 69
2019-06-20 10:00:00 19.6 11 Nordeste 16 Nordeste 0 -- -- 85
2019-06-20 09:00:00 20.3 0 Calma 14 Nordeste 0 -- -- 79
2019-06-20 08:00:00 20.4 7 Nordeste 17 Este 0 -- -- 74
2019-06-20 07:00:00 19.8 11 Nordeste 18 Nordeste 0 -- -- 75
2019-06-20 06:00:00 16.2 0 Calma 4 Nordeste 0 -- -- 91
2019-06-20 05:00:00 16.3 0 Calma 4 Este 0 -- -- 91
2019-06-20 04:00:00 16.5 0 Calma 5 Noroeste 0 -- -- 91
2019-06-20 03:00:00 16.6 0 Calma 4 Nordeste 0 -- -- 91
2019-06-20 02:00:00 16.4 0 Calma 3 Nordeste 0 -- -- 91
2019-06-20 01:00:00 16.6 0 Calma 4 Nordeste 0 -- -- 90
2019-06-20 00:00:00 16.8 0 Calma 4 Oeste 0 -- -- 90
2019-06-19 23:00:00 17.8 0 Calma 6 Sur 0 -- -- 90
2019-06-19 22:00:00 19.4 0 Calma 19 Sudoeste 0 -- -- 88
2019-06-19 21:00:00 20.4 13 Sudoeste 29 Sudoeste 0 -- -- 85
2019-06-19 20:00:00 21.5 15 Sudoeste 29 Sudoeste 0 -- -- 80
2019-06-19 19:00:00 21.8 20 Sudoeste 32 Sudoeste 0 -- -- 78
2019-06-19 18:00:00 22.7 17 Sudoeste 36 Sudoeste 0 -- -- 74
2019-06-19 17:00:00 22.6 19 Sudoeste 35 Sudoeste 0 -- -- 74
2019-06-19 16:00:00 22.9 18 Sudoeste 37 Sudoeste 0 -- -- 70
2019-06-19 15:00:00 23.4 18 Sudoeste 41 Sudoeste 0 -- -- 70
2019-06-19 14:00:00 23.4 18 Sudoeste 33 Sudoeste 0 -- -- 60
2019-06-19 13:00:00 24 18 Sudoeste 32 Sudoeste 0 -- -- 56
2019-06-19 12:00:00 24.2 15 Sudoeste 34 Sudoeste 0 -- -- 55
2019-06-19 11:00:00 22.5 19 Sudoeste 35 Sudoeste 0 -- -- 60
2019-06-19 10:00:00 21.9 12 Sudoeste 22 Sudoeste 0 -- -- 56
2019-06-19 09:00:00 19.4 7 Sur 14 Sur 0 -- -- 59
2019-06-19 08:00:00 17.4 2 Sur 15 Sudoeste 0 -- -- 68
2019-06-19 07:00:00 17.3 4 Sur 12 Sur 0 -- -- 66
2019-06-19 06:00:00 14 3 Sur 10 Sudoeste 0 -- -- 88
2019-06-19 05:00:00 13.5 0 Calma 6 Este 0 -- -- 90
2019-06-19 04:00:00 13 0 Calma 5 Noroeste 0 -- -- 90
2019-06-19 03:00:00 13.5 0 Calma 6 Noroeste 0 -- -- 90
2019-06-19 02:00:00 13.9 0 Calma 8 Noroeste 0 -- -- 89
2019-06-19 01:00:00 15 0 Calma 6 Noroeste 0 -- -- 85
2019-06-19 00:00:00 17.1 2 Este 15 Sudeste 0 -- -- 76
2019-06-18 23:00:00 19.6 3 Sur 15 Sudeste 0 -- -- 72
2019-06-18 22:00:00 20 5 Sur 17 Sur 0 -- -- 73
2019-06-18 21:00:00 20.9 4 Sur 18 Sudeste 0 -- -- 69
2019-06-18 20:00:00 22 3 Sur 23 Sudoeste 0 -- -- 69
2019-06-18 19:00:00 22.2 13 Sudoeste 34 Sudoeste 0 -- -- 71
2019-06-18 18:00:00 22.7 16 Sudoeste 38 Sudoeste 0 -- -- 59
2019-06-18 17:00:00 22.7 18 Sudoeste 40 Sudoeste 0 -- -- 57
2019-06-18 16:00:00 22.7 18 Sudoeste 36 Sudoeste 0 -- -- 53
2019-06-18 15:00:00 23.3 12 Sudoeste 38 Sudoeste 0 -- -- 52
2019-06-18 14:00:00 24.2 13 Sudoeste 37 Sudoeste 0 -- -- 46
2019-06-18 13:00:00 24.3 16 Sudoeste 38 Sudoeste 0 -- -- 42
2019-06-18 12:00:00 24.1 18 Sudoeste 36 Sur 0 -- -- 46
2019-06-18 11:00:00 25.5 8 Sudoeste 25 Sur 0 -- -- 37
2019-06-18 10:00:00 23.2 13 Sudoeste 23 Sudoeste 0 -- -- 47
2019-06-18 09:00:00 20.7 6 Sur 17 Sur 0 -- -- 53
2019-06-18 08:00:00 13.2 0 Calma 5 Nordeste 0 -- -- 86
2019-06-18 07:00:00 11.9 0 Calma 6 Este 0 -- -- 88
2019-06-18 06:00:00 11.2 2 Este 7 Nordeste 0 -- -- 89
2019-06-18 05:00:00 11.1 2 Este 5 Nordeste 0 -- -- 90
2019-06-18 04:00:00 11.4 0 Calma 5 Este 0 -- -- 90
2019-06-18 03:00:00 11.8 0 Calma 5 Noroeste 0 -- -- 90
2019-06-18 02:00:00 12.6 0 Calma 5 Noroeste 0 -- -- 90
2019-06-18 01:00:00 14.1 0 Calma 5 Nordeste 0 -- -- 90
2019-06-18 00:00:00 15.2 0 Calma 4 Nordeste 0 -- -- 89
2019-06-17 23:00:00 17.1 0 Calma 15 Sudoeste 0 -- -- 86
2019-06-17 22:00:00 19.3 8 Sudoeste 16 Sur 0 -- -- 82
2019-06-17 21:00:00 20.2 8 Sudoeste 20 Sudoeste 0 -- -- 80
2019-06-17 20:00:00 21.7 9 Sudoeste 24 Sur 0 -- -- 71
2019-06-17 19:00:00 21.7 15 Sudoeste 30 Sudoeste 0 -- -- 74
2019-06-17 18:00:00 22.9 19 Sudoeste 38 Sudoeste 0 -- -- 61
2019-06-17 17:00:00 24.2 18 Sudoeste 35 Sudoeste 0 -- -- 55
2019-06-17 16:00:00 23.5 17 Sudoeste 32 Sudoeste 0 -- -- 57
2019-06-17 15:00:00 25 7 Sudoeste 19 Oeste 0 -- -- 44
2019-06-17 14:00:00 24.7 11 Sudoeste 25 Sudoeste 0 -- -- 46
2019-06-17 13:00:00 24.3 15 Sudoeste 26 Sudoeste 0 -- -- 42
2019-06-17 12:00:00 25.5 6 Sudoeste 18 Sudoeste 0 -- -- 41
2019-06-17 11:00:00 25.5 4 Este 16 Este 0 -- -- 42
2019-06-17 10:00:00 22.8 5 Este 12 Este 0 -- -- 52
2019-06-17 09:00:00 18.6 0 Calma 5 Sur 0 -- -- 74
2019-06-17 08:00:00 15.9 2 Nordeste 6 Este 0 -- -- 88
2019-06-17 07:00:00 13.4 4 Nordeste 7 Este 0 -- -- 90
2019-06-17 06:00:00 12.5 0 Calma 4 Nordeste 0 -- -- 90
2019-06-17 05:00:00 13 0 Calma 5 Nordeste 0 -- -- 90
2019-06-17 04:00:00 13.1 0 Calma 6 Este 0 -- -- 90
2019-06-17 03:00:00 13.4 0 Calma 5 Nordeste 0 -- -- 89
2019-06-17 02:00:00 13.7 0 Calma 6 Nordeste 0 -- -- 88
2019-06-17 01:00:00 14.3 0 Calma 5 Este 0 -- -- 86
2019-06-17 00:00:00 15.2 0 Calma 4 Nordeste 0 -- -- 84
2019-06-16 23:00:00 17.1 3 Nordeste 7 Nordeste 0 -- -- 76
2019-06-16 22:00:00 19 0 Calma 22 Sudoeste 0 -- -- 66
2019-06-16 21:00:00 19.3 7 Sudoeste 24 Sudoeste 0 -- -- 64
2019-06-16 20:00:00 20.2 4 Sudoeste 30 Sudoeste 0 -- -- 60
2019-06-16 19:00:00 21.2 15 Sudoeste 34 Sudoeste 0 -- -- 57
2019-06-16 18:00:00 21.2 21 Sudoeste 36 Sudoeste 0 -- -- 56
2019-06-16 17:00:00 22.3 18 Sudoeste 34 Sudoeste 0 -- -- 55
2019-06-16 16:00:00 21.9 17 Sudoeste 31 Sudoeste 0 -- -- 50
2019-06-16 15:00:00 23 17 Sudoeste 31 Sudoeste 0 -- -- 49
2019-06-16 14:00:00 22.4 17 Sudoeste 30 Sudoeste 0 -- -- 47
2019-06-16 13:00:00 22.8 15 Sudoeste 26 Sudoeste 0 -- -- 50
2019-06-16 12:00:00 22.5 12 Sudoeste 21 Sudoeste 0 -- -- 52
2019-06-16 11:00:00 21.3 12 Sudoeste 22 Sudoeste 0 -- -- 55
2019-06-16 10:00:00 21.5 5 Este 12 Este 0 -- -- 51
2019-06-16 09:00:00 16.4 3 Este 6 Este 0 -- -- 83
2019-06-16 08:00:00 14.7 2 Nordeste 6 Este 0 -- -- 91
2019-06-16 07:00:00 13.1 2 Norte 6 Noroeste 0 -- -- 91
2019-06-16 06:00:00 12.6 0 Calma 6 Noroeste 0 -- -- 91
2019-06-16 05:00:00 12.3 0 Calma 5 Noroeste 0 -- -- 91
2019-06-16 04:00:00 12.7 0 Calma 4 Noroeste 0 -- -- 91
2019-06-16 03:00:00 13.3 2 Nordeste 5 Noroeste 0 -- -- 90
2019-06-16 02:00:00 13.3 0 Calma 7 Nordeste 0 -- -- 90
2019-06-16 01:00:00 14.2 2 Nordeste 7 Nordeste 0 -- -- 89
2019-06-16 00:00:00 15 3 Nordeste 6 Nordeste 0 -- -- 88
2019-06-15 23:00:00 15.6 0 Calma 4 Nordeste 0 -- -- 86
2019-06-15 22:00:00 17.4 0 Calma 6 Sudoeste 0 -- -- 80
2019-06-15 21:00:00 18.7 4 Sudoeste 12 Sudoeste 0 -- -- 73
2019-06-15 20:00:00 19.3 9 Sudoeste 19 Sudoeste 0 -- -- 70
2019-06-15 19:00:00 20.7 8 Sudoeste 18 Sudoeste 0 -- -- 65
2019-06-15 18:00:00 20 8 Sudoeste 22 Sudoeste 0 -- -- 65
2019-06-15 17:00:00 22.9 6 Sudoeste 21 Sudoeste 0 -- -- 59
2019-06-15 16:00:00 22.4 3 Oeste 23 Sudoeste 0 -- -- 60
2019-06-15 15:00:00 22.6 2 Norte 27 Sudoeste 0 -- -- 62
2019-06-15 14:00:00 22.6 2 Oeste 20 Nordeste 0 -- -- 60
2019-06-15 13:00:00 23.5 6 Nordeste 23 Este 0 -- -- 61
2019-06-15 12:00:00 23 10 Nordeste 21 Este 0 -- -- 60
2019-06-15 11:00:00 23.1 6 Nordeste 19 Este 0 -- -- 59
2019-06-15 10:00:00 21 8 Norte 22 Norte 0 -- -- 62
2019-06-15 09:00:00 19.4 10 Nordeste 28 Nordeste 0 -- -- 68
2019-06-15 08:00:00 18.6 6 Nordeste 15 Nordeste 0 -- -- 73
2019-06-15 07:00:00 13.7 0 Calma 6 Este 0 -- -- 90
2019-06-15 06:00:00 13.5 0 Calma 7 Nordeste 0 -- -- 90
2019-06-15 05:00:00 13.8 0 Calma 6 Nordeste 0 -- -- 90
2019-06-15 04:00:00 14.3 2 Este 6 Este 0 -- -- 90
2019-06-15 03:00:00 14.5 2 Nordeste 6 Este 0 -- -- 90
2019-06-15 02:00:00 14.7 0 Calma 5 Nordeste 0 -- -- 89
2019-06-15 01:00:00 15.2 3 Nordeste 5 Nordeste 0 -- -- 88
2019-06-15 00:00:00 15.6 0 Calma 5 Nordeste 0 -- -- 86
2019-06-14 23:00:00 16.7 0 Calma 14 Sudoeste 0 -- -- 82
2019-06-14 22:00:00 19.4 11 Sudoeste 33 Sudoeste 0 -- -- 72
2019-06-14 21:00:00 19.7 19 Sudoeste 35 Oeste 0 -- -- 69
2019-06-14 20:00:00 21 8 Sudoeste 27 Noroeste 0 -- -- 60
2019-06-14 19:00:00 21.9 4 Oeste 36 Sudoeste 0 -- -- 59
2019-06-14 18:00:00 21.8 12 Sudoeste 36 Sudoeste 0 -- -- 59
2019-06-14 17:00:00 21.7 10 Sudoeste 41 Sudoeste 0 -- -- 60
2019-06-14 16:00:00 22.6 6 Sudoeste 39 Noroeste 0 -- -- 51
2019-06-14 15:00:00 23.9 9 Sudoeste 38 Nordeste 0 -- -- 46
2019-06-14 14:00:00 24.7 14 Nordeste 26 Nordeste 0 -- -- 44
2019-06-14 13:00:00 23.5 8 Nordeste 41 Nordeste 0 -- -- 46
2019-06-14 12:00:00 22.9 23 Nordeste 49 Noroeste 0 -- -- 47
2019-06-14 11:00:00 21.8 17 Nordeste 42 Este 0 -- -- 49
2019-06-14 10:00:00 21 19 Nordeste 37 Norte 0 -- -- 51
2019-06-14 09:00:00 19.5 13 Norte 37 Nordeste 0 -- -- 51
2019-06-14 08:00:00 18.3 16 Nordeste 36 Norte 0 -- -- 48
2019-06-14 07:00:00 17.9 15 Nordeste 35 Nordeste 0 -- -- 40
2019-06-14 06:00:00 16.9 13 Norte 39 Nordeste 0 -- -- 43
2019-06-14 05:00:00 16.9 21 Nordeste 37 Nordeste 0 -- -- 45
2019-06-14 04:00:00 17.9 18 Nordeste 35 Nordeste 0 -- -- 41
2019-06-14 03:00:00 18.2 18 Nordeste 29 Nordeste 0 -- -- 40
2019-06-14 02:00:00 17.2 10 Nordeste 23 Nordeste 0 -- -- 46
2019-06-14 01:00:00 17.2 7 Noroeste 14 Noroeste 0 -- -- 49
2019-06-14 00:00:00 16.4 3 Noroeste 10 Noroeste 0 -- -- 49
2019-06-13 23:00:00 17.1 5 Norte 11 Noroeste 0 -- -- 46
2019-06-13 22:00:00 17.6 7 Nordeste 10 Nordeste 0 -- -- 45
2019-06-13 21:00:00 17.2 4 Nordeste 17 Este 0 -- -- 45
2019-06-13 20:00:00 19.8 8 Nordeste 18 Nordeste 0 -- -- 41
2019-06-13 19:00:00 20.3 7 Nordeste 18 Este 0 -- -- 46
2019-06-13 18:00:00 20.7 9 Nordeste 17 Sudoeste 0 -- -- 45
2019-06-13 17:00:00 20.9 4 Sudoeste 18 Sudoeste 0 -- -- 49
2019-06-13 16:00:00 19.3 11 Sudoeste 23 Sudoeste 0 -- -- 56
2019-06-13 15:00:00 21 9 Sudoeste 24 Sudoeste 0 -- -- 51
2019-06-13 14:00:00 20 13 Sudoeste 23 Sudoeste 0 -- -- 55
2019-06-13 13:00:00 19.5 8 Sudoeste 21 Sudoeste 0 -- -- 56
2019-06-13 12:00:00 19.3 10 Sudoeste 18 Sudoeste 0 -- -- 59
2019-06-13 11:00:00 19.7 4 Sudoeste 13 Sudoeste 0 -- -- 56
2019-06-13 10:00:00 18.4 0 Calma 10 Sudoeste 0 -- -- 66
2019-06-13 09:00:00 14.9 10 Nordeste 16 Nordeste 0 -- -- 88
2019-06-13 08:00:00 12.1 0 Calma 6 Este 0 -- -- 91
2019-06-13 07:00:00 10.2 2 Nordeste 5 Nordeste 0 -- -- 91
2019-06-13 06:00:00 9.8 2 Nordeste 4 Nordeste 0 -- -- 91
2019-06-13 05:00:00 9.8 0 Calma 3 Nordeste 0 -- -- 91
2019-06-13 04:00:00 10.3 0 Calma 4 Este 0 -- -- 91
2019-06-13 03:00:00 10.6 0 Calma 4 Nordeste 0 -- -- 91
2019-06-13 02:00:00 11.1 0 Calma 7 Noroeste 0 -- -- 90
2019-06-13 01:00:00 12.2 0 Calma 6 Nordeste 0 -- -- 90
2019-06-13 00:00:00 12.7 0 Calma 6 Oeste 0 -- -- 89
2019-06-12 23:00:00 14.2 0 Calma 12 Oeste 0 -- -- 85
2019-06-12 22:00:00 16 3 Sudoeste 19 Sudoeste 0 -- -- 78
2019-06-12 21:00:00 16.5 7 Sudoeste 28 Sudoeste 0 -- -- 73
2019-06-12 20:00:00 17.4 16 Sudoeste 36 Sudoeste 0 -- -- 66
2019-06-12 19:00:00 17.9 15 Sudoeste 36 Sur 0 -- -- 63
2019-06-12 18:00:00 17.9 19 Sudoeste 39 Sudoeste 0 -- -- 60
2019-06-12 17:00:00 18.6 20 Sudoeste 40 Sudoeste 0 -- -- 56
2019-06-12 16:00:00 18.6 19 Sudoeste 46 Sur 0 -- -- 56
2019-06-12 15:00:00 18.3 21 Sudoeste 41 Sur 0 -- -- 54
2019-06-12 14:00:00 18.7 16 Sudoeste 35 Sudoeste 0 -- -- 52
2019-06-12 13:00:00 18.1 18 Sudoeste 33 Sudoeste 0 -- -- 52
2019-06-12 12:00:00 17.7 13 Sudoeste 30 Sudoeste 0 -- -- 56
2019-06-12 11:00:00 15.9 13 Sudoeste 28 Sudoeste 0 -- -- 66
2019-06-12 10:00:00 14.1 4 Nordeste 12 Este 0 -- -- 91
2019-06-12 09:00:00 11.8 0 Calma 9 Nordeste 0 -- -- 91
2019-06-12 08:00:00 10 0 Calma 6 Sudoeste 0 -- -- 91
2019-06-12 07:00:00 7.6 2 Nordeste 5 Noroeste 0 -- -- 92
2019-06-12 06:00:00 7 2 Nordeste 5 Nordeste 0 -- -- 92
2019-06-12 05:00:00 7 0 Calma 3 Nordeste 0 -- -- 91
2019-06-12 04:00:00 7.8 2 Nordeste 4 Nordeste 0 -- -- 91
2019-06-12 03:00:00 7.8 0 Calma 5 Nordeste 0 -- -- 92
2019-06-12 02:00:00 8.4 2 Nordeste 5 Nordeste 0 -- -- 91
2019-06-12 01:00:00 8.9 0 Calma 5 Nordeste 0 -- -- 91
2019-06-12 00:00:00 10 0 Calma 7 Noroeste 0 -- -- 91
2019-06-11 23:00:00 11.4 4 Noroeste 6 Noroeste 0 -- -- 91
2019-06-11 22:00:00 11.4 0 Calma 9 Noroeste 0.5 -- -- 91
2019-06-11 21:00:00 11.6 0 Calma 7 Nordeste 1.3 -- -- 91
2019-06-11 20:00:00 12.1 2 Norte 14 Noroeste 0.8 -- -- 90
2019-06-11 19:00:00 12.2 5 Norte 18 Nordeste 1 -- -- 90
2019-06-11 18:00:00 12.1 8 Nordeste 18 Noroeste 0.2 -- -- 90
2019-06-11 17:00:00 12.4 8 Nordeste 16 Noroeste 1.7 -- -- 91
2019-06-11 16:00:00 12 10 Nordeste 18 Norte 1.7 -- -- 91
2019-06-11 15:00:00 12.9 9 Nordeste 18 Nordeste 3.4 -- -- 91
2019-06-11 14:00:00 13.4 11 Nordeste 18 Este 1.5 -- -- 91
2019-06-11 13:00:00 14.1 2 Noroeste 20 Nordeste 1.1 -- -- 91
2019-06-11 12:00:00 14.5 4 Nordeste 10 Este 3.9 -- -- 91
2019-06-11 11:00:00 15.1 0 Calma 6 Este 0.6 -- -- 91
2019-06-11 10:00:00 14.8 2 Sudoeste 9 Sudoeste 1.2 -- -- 91
2019-06-11 09:00:00 14.6 0 Calma 7 Noroeste 0.9 -- -- 91
2019-06-11 08:00:00 14.2 3 Norte 8 Noroeste 0.2 -- -- 91
2019-06-11 07:00:00 13.8 3 Oeste 10 Noroeste 0 -- -- 91
2019-06-11 06:00:00 13.7 2 Noroeste 8 Noroeste 0.4 -- -- 91
2019-06-11 05:00:00 14.8 2 Nordeste 11 Noroeste 1.2 -- -- 91
2019-06-11 04:00:00 14.6 4 Noroeste 10 Noroeste 0.2 -- -- 89
2019-06-11 03:00:00 15.9 2 Este 7 Nordeste 0 -- -- 71
2019-06-11 02:00:00 15.4 4 Este 6 Este 0 -- -- 75
2019-06-11 01:00:00 15.2 3 Este 6 Nordeste 0 -- -- 79
2019-06-11 00:00:00 15.5 3 Noroeste 9 Noroeste 0 -- -- 82
2019-06-10 23:00:00 15.7 0 Calma 6 Oeste 0 -- -- 83
2019-06-10 22:00:00 16.4 0 Calma 6 Norte 0 -- -- 81
2019-06-10 21:00:00 17.8 2 Sudoeste 22 Sudoeste 0 -- -- 76
2019-06-10 20:00:00 18.8 10 Sudoeste 29 Sudoeste 0 -- -- 70
2019-06-10 19:00:00 21.2 17 Sudoeste 30 Sudoeste 0 -- -- 57
2019-06-10 18:00:00 21.1 17 Sudoeste 30 Sur 0 -- -- 65
2019-06-10 17:00:00 20.6 13 Sudoeste 24 Sudoeste 0 -- -- 62
2019-06-10 16:00:00 22 13 Sudoeste 24 Sudoeste 0 -- -- 61
2019-06-10 15:00:00 22.9 13 Sudoeste 29 Sur 0 -- -- 59
2019-06-10 14:00:00 23 13 Sudoeste 25 Sudoeste 0 -- -- 49
2019-06-10 13:00:00 24.5 12 Sudoeste 30 Sudoeste 0 -- -- 46
2019-06-10 12:00:00 23.2 6 Sudoeste 21 Sudoeste 0 -- -- 55
2019-06-10 11:00:00 22.2 4 Sudoeste 15 Sudoeste 0 -- -- 55
2019-06-10 10:00:00 23.1 6 Sudoeste 13 Sudoeste 0 -- -- 54
2019-06-10 09:00:00 22 0 Calma 7 Noroeste 0 -- -- 59
2019-06-10 08:00:00 17.2 3 Noroeste 8 Noroeste 0 -- -- 79
2019-06-10 07:00:00 15.6 0 Calma 8 Noroeste 0 -- -- 83
2019-06-10 06:00:00 16 0 Calma 5 Este 0 -- -- 83
2019-06-10 05:00:00 16.7 4 Nordeste 7 Nordeste 0 -- -- 79
2019-06-10 04:00:00 17.4 0 Calma 12 Nordeste 0 -- -- 75
2019-06-10 03:00:00 19.5 3 Noroeste 10 Noroeste 0 -- -- 66
2019-06-10 02:00:00 20.7 0 Calma 22 Nordeste 0 -- -- 56
2019-06-10 01:00:00 21.4 9 Nordeste 21 Nordeste 0 -- -- 54
2019-06-10 00:00:00 21 7 Nordeste 18 Norte 0 -- -- 55
2019-06-09 23:00:00 20.3 6 Nordeste 11 Nordeste 0 -- -- 59
2019-06-09 22:00:00 19.8 0 Calma 17 Nordeste 0 -- -- 60
2019-06-09 21:00:00 21.3 2 Norte 21 Noroeste 0 -- -- 56
2019-06-09 20:00:00 21.7 5 Nordeste 24 Nordeste 0 -- -- 57
2019-06-09 19:00:00 23 12 Nordeste 23 Este 0 -- -- 55
2019-06-09 18:00:00 22.9 6 Nordeste 18 Nordeste 0 -- -- 59
2019-06-09 17:00:00 25.1 8 Este 25 Nordeste 0 -- -- 44
2019-06-09 16:00:00 26.4 7 Nordeste 24 Este 0 -- -- 41
2019-06-09 15:00:00 23.4 3 Sur 21 Norte 0 -- -- 49
2019-06-09 14:00:00 26.1 10 Norte 28 Nordeste 0 -- -- 29
2019-06-09 13:00:00 25.9 10 Nordeste 34 Nordeste 0 -- -- 27
2019-06-09 12:00:00 25.2 18 Nordeste 35 Nordeste 0 -- -- 29
2019-06-09 11:00:00 23 14 Nordeste 32 Nordeste 0 -- -- 35
2019-06-09 10:00:00 21 6 Noroeste 13 Noroeste 0 -- -- 36
2019-06-09 09:00:00 19.8 6 Oeste 15 Oeste 0 -- -- 39
2019-06-09 08:00:00 19.5 4 Este 26 Nordeste 0 -- -- 39
2019-06-09 07:00:00 20.8 14 Nordeste 25 Nordeste 0 -- -- 36
2019-06-09 06:00:00 18.5 10 Noroeste 26 Noroeste 0 -- -- 38
2019-06-09 05:00:00 17.5 8 Noroeste 15 Noroeste 0 -- -- 38
2019-06-09 04:00:00 16 2 Nordeste 10 Norte 0 -- -- 41
2019-06-09 03:00:00 16.5 3 Norte 6 Este 0 -- -- 42
2019-06-09 02:00:00 16 3 Nordeste 5 Este 0 -- -- 43
2019-06-09 01:00:00 16.4 0 Calma 5 Oeste 0 -- -- 43
2019-06-09 00:00:00 16.2 0 Calma 3 Noroeste 0 -- -- 41
2019-06-08 23:00:00 16.1 0 Calma 3 Oeste 0 -- -- 41
2019-06-08 22:00:00 17.5 0 Calma 4 Oeste 0 -- -- 36
2019-06-08 21:00:00 19.5 2 Norte 11 Nordeste 0 -- -- 30
2019-06-08 20:00:00 23.1 7 Nordeste 21 Nordeste 0 -- -- 26
2019-06-08 19:00:00 23.7 11 Nordeste 19 Nordeste 0 -- -- 27
2019-06-08 18:00:00 23.7 8 Nordeste 22 Nordeste 0 -- -- 30
2019-06-08 17:00:00 24.7 9 Nordeste 25 Nordeste 0 -- -- 30
2019-06-08 16:00:00 23 5 Nordeste 24 Nordeste 0 -- -- 34
2019-06-08 15:00:00 25.1 9 Nordeste 27 Nordeste 0 -- -- 31
2019-06-08 14:00:00 24.1 11 Nordeste 22 Nordeste 0 -- -- 35
2019-06-08 13:00:00 23.9 8 Nordeste 19 Nordeste 0 -- -- 39
2019-06-08 12:00:00 23 5 Nordeste 19 Este 0 -- -- 39
2019-06-08 11:00:00 22 5 Sudoeste 24 Nordeste 0 -- -- 40
2019-06-08 10:00:00 21 8 Nordeste 31 Este 0 -- -- 40
2019-06-08 09:00:00 18.1 12 Nordeste 27 Norte 0 -- -- 49
2019-06-08 08:00:00 16.3 16 Nordeste 28 Norte 0 -- -- 51
2019-06-08 07:00:00 15.2 12 Nordeste 25 Norte 0 -- -- 54
2019-06-08 06:00:00 15.4 10 Nordeste 21 Nordeste 0 -- -- 53
2019-06-08 05:00:00 15.7 12 Nordeste 24 Nordeste 0 -- -- 53
2019-06-08 04:00:00 16.4 14 Nordeste 24 Nordeste 0 -- -- 51
2019-06-08 03:00:00 16.6 8 Norte 21 Norte 0 -- -- 53
2019-06-08 02:00:00 16.8 9 Norte 22 Norte 0 -- -- 53
2019-06-08 01:00:00 17 8 Norte 18 Noroeste 0 -- -- 53
2019-06-08 00:00:00 17.8 9 Norte 24 Noroeste 0 -- -- 51
2019-06-07 23:00:00 18.1 6 Noroeste 13 Nordeste 0 -- -- 56
2019-06-07 22:00:00 16 0 Calma 8 Nordeste 0 -- -- 80
2019-06-07 21:00:00 18.4 7 Nordeste 23 Este 0 -- -- 70
2019-06-07 20:00:00 20.1 15 Nordeste 33 Este 0 -- -- 60
2019-06-07 19:00:00 22.9 8 Sudoeste 28 Sudoeste 0 -- -- 62
2019-06-07 18:00:00 22.4 18 Sudoeste 31 Sudoeste 0 -- -- 64
2019-06-07 17:00:00 22.7 17 Sudoeste 36 Sudoeste 0 -- -- 60
2019-06-07 16:00:00 22.2 18 Sudoeste 43 Sudoeste 0 -- -- 58
2019-06-07 15:00:00 22 17 Sudoeste 48 Sudoeste 0 -- -- 59
2019-06-07 14:00:00 22.1 20 Sudoeste 42 Sur 0 -- -- 59
2019-06-07 13:00:00 21.5 16 Sudoeste 36 Sudoeste 0 -- -- 68
2019-06-07 12:00:00 20.6 12 Sudoeste 30 Sudoeste 0 -- -- 72
2019-06-07 11:00:00 21.3 11 Sudoeste 26 Sudoeste 0 -- -- 70
2019-06-07 10:00:00 19.9 7 Sudoeste 23 Sudoeste 0 -- -- 80
2019-06-07 09:00:00 18.5 5 Sudoeste 11 Sur 0 -- -- 87
2019-06-07 08:00:00 16.6 0 Calma 0 Calma 0 -- -- 91
2019-06-07 07:00:00 15.1 0 Calma 10 Oeste 0 -- -- 91
2019-06-07 06:00:00 14.9 0 Calma 5 Nordeste 0 -- -- 91
2019-06-07 05:00:00 14.3 0 Calma 3 Noroeste 0 -- -- 91
2019-06-07 04:00:00 13.7 0 Calma 4 Noroeste 0 -- -- 92
2019-06-07 03:00:00 13.9 0 Calma 4 Noroeste 0 -- -- 90
2019-06-07 02:00:00 13.8 0 Calma 4 Nordeste 0 -- -- 90
2019-06-07 01:00:00 13.8 0 Calma 3 Nordeste 0 -- -- 90
2019-06-07 00:00:00 13.9 0 Calma 2 Sudoeste 0 -- -- 90
2019-06-06 23:00:00 14.3 0 Calma 4 Este 0 -- -- 90
2019-06-06 22:00:00 15.9 2 Sudoeste 13 Sudoeste 0 -- -- 85
2019-06-06 21:00:00 17.2 10 Sudoeste 22 Sudoeste 0 -- -- 80
2019-06-06 20:00:00 17.7 12 Sudoeste 27 Sudoeste 0 -- -- 74
2019-06-06 19:00:00 18.5 11 Sudoeste 27 Sudoeste 0 -- -- 71
2019-06-06 18:00:00 18.9 14 Sudoeste 28 Sudoeste 0 -- -- 68
2019-06-06 17:00:00 19.1 12 Sudoeste 33 Sudoeste 0 -- -- 65
2019-06-06 16:00:00 19.6 17 Sudoeste 34 Sudoeste 0 -- -- 65
2019-06-06 15:00:00 19.6 19 Sudoeste 35 Sudoeste 0 -- -- 64
2019-06-06 14:00:00 19.5 14 Sudoeste 33 Sur 0 -- -- 65
2019-06-06 13:00:00 19.7 12 Sudoeste 32 Sudoeste 0 -- -- 64
2019-06-06 12:00:00 19.7 13 Sudoeste 28 Sudoeste 0 -- -- 66
2019-06-06 11:00:00 18.5 18 Sudoeste 33 Sudoeste 0 -- -- 69
2019-06-06 10:00:00 17.8 12 Sudoeste 26 Sur 0 -- -- 71
2019-06-06 09:00:00 17.2 8 Sudoeste 23 Sudoeste 0 -- -- 74
2019-06-06 08:00:00 14.5 4 Sur 13 Sur 0 -- -- 86
2019-06-06 07:00:00 11.3 0 Calma 7 Sudoeste 0 -- -- 90
2019-06-06 06:00:00 11.7 0 Calma 8 Sudoeste 0 -- -- 89
2019-06-06 05:00:00 12.2 3 Nordeste 7 Nordeste 0 -- -- 86
2019-06-06 04:00:00 10.8 0 Calma 6 Nordeste 0 -- -- 84
2019-06-06 03:00:00 11.5 0 Calma 6 Nordeste 0 -- -- 80
2019-06-06 02:00:00 11.9 0 Calma 5 Noroeste 0 -- -- 74
2019-06-06 01:00:00 13.2 2 Nordeste 6 Este 0 -- -- 69
2019-06-06 00:00:00 14.1 0 Calma 8 Oeste 0 -- -- 61
2019-06-05 23:00:00 16.1 3 Norte 10 Nordeste 0 -- -- 55
2019-06-05 22:00:00 17.6 4 Noroeste 15 Nordeste 0 -- -- 53
2019-06-05 21:00:00 18.9 6 Nordeste 13 Norte 0 -- -- 51
2019-06-05 20:00:00 20.6 8 Nordeste 21 Nordeste 0 -- -- 49
2019-06-05 19:00:00 21.6 12 Nordeste 26 Nordeste 0 -- -- 50
2019-06-05 18:00:00 25.9 7 Sudoeste 27 Sudoeste 0 -- -- 35
2019-06-05 17:00:00 22.6 17 Sudoeste 44 Sur 0 -- -- 65
2019-06-05 16:00:00 21.9 15 Sur 38 Sudoeste 0 -- -- 67
2019-06-05 15:00:00 22.1 14 Sudoeste 31 Sur 0 -- -- 71
2019-06-05 14:00:00 22.3 9 Sudoeste 20 Sudoeste 0 -- -- 69
2019-06-05 13:00:00 22.2 11 Sudoeste 28 Sudoeste 0 -- -- 62
2019-06-05 12:00:00 22.5 0 Calma 23 Sudoeste 0 -- -- 62
2019-06-05 11:00:00 21.4 5 Nordeste 14 Nordeste 0 -- -- 64
2019-06-05 10:00:00 19.8 6 Norte 19 Noroeste 0 -- -- 70
2019-06-05 09:00:00 18 10 Noroeste 19 Noroeste 0 -- -- 73
2019-06-05 08:00:00 16 9 Noroeste 16 Nordeste 0 -- -- 76
2019-06-05 07:00:00 14.5 2 Noroeste 15 Noroeste 0 -- -- 75
2019-06-05 06:00:00 14.4 5 Noroeste 15 Oeste 0 -- -- 88
2019-06-05 05:00:00 12.6 0 Calma 6 Noroeste 0 -- -- 91
2019-06-05 04:00:00 12.2 0 Calma 5 Nordeste 0 -- -- 91
2019-06-05 03:00:00 12.3 0 Calma 4 Oeste 0 -- -- 91
2019-06-05 02:00:00 12.8 0 Calma 4 Este 0 -- -- 91
2019-06-05 01:00:00 13.6 0 Calma 6 Nordeste 0 -- -- 90
2019-06-05 00:00:00 14.5 0 Calma 4 Oeste 0 -- -- 90
2019-06-04 23:00:00 15.4 0 Calma 3 Este 0 -- -- 87
2019-06-04 22:00:00 17.5 0 Calma 17 Sudoeste 0 -- -- 81
2019-06-04 21:00:00 19.6 8 Sudoeste 23 Sur 0 -- -- 71
2019-06-04 20:00:00 20.2 15 Sudoeste 28 Sudoeste 0 -- -- 70
2019-06-04 19:00:00 20.8 13 Sur 31 Sudoeste 0 -- -- 70
2019-06-04 18:00:00 22 15 Sudoeste 35 Sudoeste 0 -- -- 62
2019-06-04 17:00:00 21.7 18 Sur 35 Sudoeste 0 -- -- 65
2019-06-04 16:00:00 22.8 17 Sudoeste 39 Sudoeste 0 -- -- 47
2019-06-04 15:00:00 23.2 22 Sur 39 Sudoeste 0 -- -- 45
2019-06-04 14:00:00 23.4 15 Sur 37 Sudoeste 0 -- -- 47
2019-06-04 13:00:00 22.3 13 Sur 37 Sur 0 -- -- 57
2019-06-04 12:00:00 21.6 17 Sudoeste 32 Sudoeste 0 -- -- 70
2019-06-04 11:00:00 20.5 14 Sur 33 Sudoeste 0 -- -- 73
2019-06-04 10:00:00 20.3 11 Sudoeste 30 Sur 0 -- -- 66
2019-06-04 09:00:00 19 10 Sudoeste 21 Sudoeste 0 -- -- 65
2019-06-04 08:00:00 17 6 Sur 14 Sur 0 -- -- 61
2019-06-04 07:00:00 11.4 0 Calma 7 Sudoeste 0 -- -- 84
2019-06-04 06:00:00 11.4 0 Calma 4 Sudoeste 0 -- -- 85
2019-06-04 05:00:00 12.6 0 Calma 6 Sudeste 0 -- -- 81
2019-06-04 04:00:00 13.7 2 Sudoeste 13 Sudeste 0 -- -- 80
2019-06-04 03:00:00 15.1 5 Sudoeste 18 Sur 0 -- -- 73
2019-06-04 02:00:00 13.9 3 Sudoeste 11 Sudeste 0 -- -- 90
2019-06-04 01:00:00 14.8 2 Sudoeste 6 Sudoeste 0 -- -- 90
2019-06-04 00:00:00 17.4 0 Calma 16 Sudoeste 0 -- -- 88
2019-06-03 23:00:00 18.2 6 Sudoeste 24 Sudeste 0 -- -- 86
2019-06-03 22:00:00 18.4 8 Sur 25 Sur 0 -- -- 86
2019-06-03 21:00:00 19.7 8 Sur 21 Sudeste 0 -- -- 66
2019-06-03 20:00:00 21.5 4 Sur 24 Sudoeste 0 -- -- 54
2019-06-03 19:00:00 21.5 12 Sur 33 Sur 0 -- -- 55
2019-06-03 18:00:00 21.7 17 Sudoeste 31 Sudoeste 0 -- -- 57
2019-06-03 17:00:00 22.3 14 Sudoeste 38 Sur 0 -- -- 54
2019-06-03 16:00:00 22.8 20 Sudoeste 36 Sudoeste 0 -- -- 51
2019-06-03 15:00:00 22.2 19 Sur 42 Sudoeste 0 -- -- 53
2019-06-03 14:00:00 23.7 20 Sudoeste 42 Sudoeste 0 -- -- 47
2019-06-03 13:00:00 23 18 Sur 39 Sudoeste 0 -- -- 51
2019-06-03 12:00:00 23.4 11 Sudoeste 28 Sudoeste 0 -- -- 55
2019-06-03 11:00:00 21.6 13 Sur 28 Sudoeste 0 -- -- 57
2019-06-03 10:00:00 21 10 Sur 25 Sudoeste 0 -- -- 58
2019-06-03 09:00:00 19.3 8 Sudoeste 18 Sudoeste 0 -- -- 56
2019-06-03 08:00:00 17.5 8 Sudoeste 20 Sudoeste 0 -- -- 61
2019-06-03 07:00:00 11.3 0 Calma 6 Sudoeste 0 -- -- 84
2019-06-03 06:00:00 11.4 2 Sur 5 Sudoeste 0 -- -- 83
2019-06-03 05:00:00 12.1 3 Sur 8 Sudoeste 0 -- -- 80
2019-06-03 04:00:00 13.1 3 Sudoeste 19 Sur 0 -- -- 71
2019-06-03 03:00:00 14.5 3 Sudoeste 13 Sur 0 -- -- 66
2019-06-03 02:00:00 15.3 6 Sudoeste 20 Sur 0 -- -- 64
2019-06-03 01:00:00 14.8 5 Sudoeste 12 Sudoeste 0 -- -- 65
2019-06-03 00:00:00 17.5 5 Sudoeste 19 Sur 0 -- -- 50
2019-06-02 23:00:00 19.5 5 Sudoeste 30 Sur 0 -- -- 46
2019-06-02 22:00:00 20.7 8 Sur 22 Sudoeste 0 -- -- 45
2019-06-02 21:00:00 20.4 4 Sur 22 Sudoeste 0 -- -- 49
2019-06-02 20:00:00 20.8 5 Sudoeste 32 Sur 0 -- -- 41
2019-06-02 19:00:00 22.8 5 Sudoeste 31 Sudoeste 0 -- -- 39
2019-06-02 18:00:00 23.3 12 Sudoeste 32 Sur 0 -- -- 39
2019-06-02 17:00:00 23.1 7 Sudoeste 35 Sudoeste 0 -- -- 41
2019-06-02 16:00:00 22.6 12 Sudoeste 38 Sur 0 -- -- 46
2019-06-02 15:00:00 22.4 14 Sudoeste 38 Sudoeste 0 -- -- 55
2019-06-02 14:00:00 22.5 17 Sudoeste 39 Sudoeste 0 -- -- 64
2019-06-02 13:00:00 21.6 18 Sudoeste 36 Sudoeste 0 -- -- 66
2019-06-02 12:00:00 20.7 18 Sudoeste 35 Sudoeste 0 -- -- 70
2019-06-02 11:00:00 21 16 Sudoeste 30 Sudoeste 0 -- -- 60
2019-06-02 10:00:00 20.9 10 Sur 31 Sur 0 -- -- 55
2019-06-02 09:00:00 19 14 Sudoeste 25 Sudoeste 0 -- -- 55
2019-06-02 08:00:00 12.7 0 Calma 6 Este 0 -- -- 80
2019-06-02 07:00:00 10.6 0 Calma 4 Este 0 -- -- 86
2019-06-02 06:00:00 10.3 0 Calma 4 Este 0 -- -- 86
2019-06-02 05:00:00 11 0 Calma 5 Este 0 -- -- 86
2019-06-02 04:00:00 11.4 0 Calma 6 Sudoeste 0 -- -- 86
2019-06-02 03:00:00 12.3 4 Sudoeste 9 Sudoeste 0 -- -- 86
2019-06-02 02:00:00 13.9 4 Sudoeste 15 Sur 0 -- -- 83
2019-06-02 01:00:00 17.5 11 Sudoeste 27 Sudoeste 0 -- -- 70
2019-06-02 00:00:00 17.6 14 Sudoeste 24 Sudoeste 0 -- -- 76
2019-06-01 23:00:00 18.2 10 Sudoeste 19 Sudoeste 0 -- -- 66
2019-06-01 22:00:00 17.9 5 Sur 26 Sur 0 -- -- 68
2019-06-01 21:00:00 18.9 8 Sur 26 Sur 0 -- -- 56
2019-06-01 20:00:00 20.9 10 Sudoeste 28 Sudoeste 0 -- -- 47
2019-06-01 19:00:00 21.7 9 Sudoeste 31 Sudoeste 0 -- -- 46
2019-06-01 18:00:00 22.9 10 Sudoeste 34 Sudoeste 0 -- -- 46
2019-06-01 17:00:00 22.6 15 Sudoeste 35 Sur 0 -- -- 50
2019-06-01 16:00:00 21.7 18 Sudoeste 37 Sur 0 -- -- 57
2019-06-01 15:00:00 22.8 20 Sudoeste 37 Sudoeste 0 -- -- 54
2019-06-01 14:00:00 23.3 17 Sudoeste 32 Sudoeste 0 -- -- 54
2019-06-01 13:00:00 22.1 11 Sudoeste 20 Sudoeste 0 -- -- 52
2019-06-01 12:00:00 22.4 6 Sudoeste 15 Sudoeste 0 -- -- 49
2019-06-01 11:00:00 21.8 7 Sudoeste 14 Sudoeste 0 -- -- 54
2019-06-01 10:00:00 21.3 8 Sudoeste 15 Sudoeste 0 -- -- 56
2019-06-01 09:00:00 17.5 0 Calma 5 Sur 0 -- -- 74
2019-06-01 08:00:00 13.1 0 Calma 5 Nordeste 0 -- -- 90
2019-06-01 07:00:00 11.4 3 Nordeste 6 Nordeste 0 -- -- 90
2019-06-01 06:00:00 11 0 Calma 4 Nordeste 0 -- -- 90
2019-06-01 05:00:00 11.2 0 Calma 4 Nordeste 0 -- -- 90
2019-06-01 04:00:00 11.7 3 Nordeste 4 Nordeste 0 -- -- 89
2019-06-01 03:00:00 11.9 0 Calma 4 Nordeste 0 -- -- 87
2019-06-01 02:00:00 12.3 2 Nordeste 5 Nordeste 0 -- -- 86
2019-06-01 01:00:00 12.7 0 Calma 4 Nordeste 0 -- -- 84
2019-06-01 00:00:00 13.7 0 Calma 4 Nordeste 0 -- -- 79
2019-05-31 23:00:00 15 0 Calma 5 Sudoeste 0 -- -- 74
2019-05-31 22:00:00 17.4 0 Calma 17 Sur 0 -- -- 60
2019-05-31 21:00:00 19.3 5 Sudoeste 17 Sudoeste 0 -- -- 56
2019-05-31 20:00:00 20.5 11 Sudoeste 20 Sudoeste 0 -- -- 56
2019-05-31 19:00:00 20.8 10 Sudoeste 27 Sudoeste 0 -- -- 53
2019-05-31 18:00:00 21.6 15 Sudoeste 29 Sudoeste 0 -- -- 36
2019-05-31 17:00:00 23.1 13 Sudoeste 28 Sudoeste 0 -- -- 40
2019-05-31 16:00:00 23.8 13 Sudoeste 31 Sudoeste 0 -- -- 40
2019-05-31 15:00:00 23.5 13 Sudoeste 30 Sudoeste 0 -- -- 40
2019-05-31 14:00:00 23.8 13 Sudoeste 27 Sudoeste 0 -- -- 38
2019-05-31 13:00:00 23.2 12 Sudoeste 26 Sudoeste 0 -- -- 40
2019-05-31 12:00:00 23.5 12 Sudoeste 23 Sudoeste 0 -- -- 44
2019-05-31 11:00:00 22.2 10 Sur 21 Sudoeste 0 -- -- 42
2019-05-31 10:00:00 21.2 3 Sudoeste 8 Nordeste 0 -- -- 47
2019-05-31 09:00:00 16.7 5 Nordeste 7 Este 0 -- -- 71
2019-05-31 08:00:00 13.4 2 Nordeste 5 Nordeste 0 -- -- 86
2019-05-31 07:00:00 11.6 0 Calma 8 Noroeste 0 -- -- 88
2019-05-31 06:00:00 10.9 0 Calma 5 Nordeste 0 -- -- 89
2019-05-31 05:00:00 11.1 3 Nordeste 4 Nordeste 0 -- -- 88
2019-05-31 04:00:00 11.3 0 Calma 4 Este 0 -- -- 86
2019-05-31 03:00:00 12.2 3 Nordeste 5 Nordeste 0 -- -- 85
2019-05-31 02:00:00 13.9 3 Nordeste 5 Nordeste 0 -- -- 81
2019-05-31 01:00:00 13.5 0 Calma 5 Norte 0 -- -- 83
2019-05-31 00:00:00 13.2 0 Calma 4 Nordeste 0 -- -- 86
2019-05-30 23:00:00 14.1 0 Calma 5 Oeste 0 -- -- 84
2019-05-30 22:00:00 16.2 0 Calma 10 Sudoeste 0 -- -- 79
2019-05-30 21:00:00 17.1 8 Sudoeste 24 Sur 0 -- -- 72
2019-05-30 20:00:00 18.4 12 Sudoeste 23 Sudoeste 0 -- -- 66
2019-05-30 19:00:00 19.1 11 Sudoeste 25 Sur 0 -- -- 65
2019-05-30 18:00:00 19.8 14 Sudoeste 28 Sudoeste 0 -- -- 66
2019-05-30 17:00:00 19.9 14 Sudoeste 30 Sudoeste 0 -- -- 65
2019-05-30 16:00:00 19.4 17 Sudoeste 27 Sudoeste 0 -- -- 64
2019-05-30 15:00:00 21 18 Sudoeste 35 Sudoeste 0 -- -- 55
2019-05-30 14:00:00 20.6 16 Sudoeste 31 Sudoeste 0 -- -- 54
2019-05-30 13:00:00 19.8 12 Sudoeste 30 Sudoeste 0 -- -- 59
2019-05-30 12:00:00 19.6 9 Sudoeste 22 Sudoeste 0 -- -- 54
2019-05-30 11:00:00 19.4 4 Sudoeste 15 Sudoeste 0 -- -- 52
2019-05-30 10:00:00 18.6 0 Calma 10 Nordeste 0 -- -- 51
2019-05-30 09:00:00 14.2 3 Nordeste 10 Nordeste 0 -- -- 81
2019-05-30 08:00:00 11.9 0 Calma 5 Este 0 -- -- 91
2019-05-30 07:00:00 10.4 2 Nordeste 6 Nordeste 0 -- -- 91
2019-05-30 06:00:00 10.2 3 Nordeste 6 Nordeste 0 -- -- 91
2019-05-30 05:00:00 10.2 3 Nordeste 8 Norte 0 -- -- 91
2019-05-30 04:00:00 10.4 0 Calma 5 Nordeste 0 -- -- 91
2019-05-30 03:00:00 10.7 0 Calma 5 Noroeste 0 -- -- 91
2019-05-30 02:00:00 11.2 0 Calma 6 Nordeste 0 -- -- 91
2019-05-30 01:00:00 12.1 0 Calma 5 Nordeste 0 -- -- 90
2019-05-30 00:00:00 13.2 2 Nordeste 7 Nordeste 0 -- -- 89
2019-05-29 23:00:00 14 0 Calma 6 Nordeste 0 -- -- 88
2019-05-29 22:00:00 15.1 3 Sudoeste 12 Sudoeste 0 -- -- 85
2019-05-29 21:00:00 16.5 5 Sudoeste 18 Sudoeste 0 -- -- 76
2019-05-29 20:00:00 17.2 4 Sudoeste 21 Sudoeste 0 -- -- 73
2019-05-29 19:00:00 17.9 16 Sudoeste 27 Sudoeste 0 -- -- 69
2019-05-29 18:00:00 18 18 Sudoeste 60 Sudoeste 0 -- -- 66
2019-05-29 17:00:00 17.6 15 Sudoeste 29 Sur 0 -- -- 70
2019-05-29 16:00:00 18.8 14 Sudoeste 32 Sudoeste 0 -- -- 64
2019-05-29 15:00:00 19.1 15 Sudoeste 27 Sudoeste 0 -- -- 65
2019-05-29 14:00:00 19.2 12 Sudoeste 25 Sudoeste 0 -- -- 65
2019-05-29 13:00:00 17.5 8 Sudoeste 25 Sur 0 -- -- 68
2019-05-29 12:00:00 18.1 9 Sudoeste 23 Sudoeste 0 -- -- 63
2019-05-29 11:00:00 18.1 12 Sudoeste 22 Sudoeste 0 -- -- 69
2019-05-29 10:00:00 15.2 0 Calma 5 Sudoeste 0.1 -- -- 89
2019-05-29 09:00:00 14 4 Noroeste 10 Oeste 0 -- -- 91
2019-05-29 08:00:00 12.1 2 Norte 5 Norte 0 -- -- 91
2019-05-29 07:00:00 10.8 3 Nordeste 6 Nordeste 0 -- -- 91
2019-05-29 06:00:00 11.1 2 Nordeste 5 Nordeste 0 -- -- 91
2019-05-29 05:00:00 11.6 0 Calma 4 Norte 0 -- -- 91
2019-05-29 04:00:00 12.7 2 Norte 7 Oeste 0 -- -- 91
2019-05-29 03:00:00 13.4 3 Norte 12 Noroeste 0 -- -- 91
2019-05-29 02:00:00 13.5 4 Nordeste 13 Nordeste 0 -- -- 91
2019-05-29 01:00:00 13.5 3 Norte 17 Nordeste 0.7 -- -- 91
2019-05-29 00:00:00 13.6 3 Nordeste 7 Norte 0 -- -- 91
2019-05-28 23:00:00 13.8 3 Norte 9 Noroeste 0.4 -- -- 91
2019-05-28 22:00:00 13.6 3 Norte 10 Noroeste 0.3 -- -- 91
2019-05-28 21:00:00 13.8 0 Calma 10 Sudoeste 1.3 -- -- 91
2019-05-28 20:00:00 14 4 Sudoeste 10 Norte 7.2 -- -- 91
2019-05-28 19:00:00 15.5 3 Nordeste 10 Sudoeste 0.1 -- -- 84
2019-05-28 18:00:00 16.9 5 Sudoeste 16 Sur 0 -- -- 65
2019-05-28 17:00:00 16.9 6 Sudoeste 25 Sudoeste 0 -- -- 66
2019-05-28 16:00:00 18.5 10 Sudoeste 24 Sudoeste 0 -- -- 57
2019-05-28 15:00:00 18.3 7 Sudoeste 22 Sudoeste 0 -- -- 63
2019-05-28 14:00:00 19.6 12 Sudoeste 22 Sur 0 -- -- 50
2019-05-28 13:00:00 18.2 9 Sudoeste 18 Sudoeste 0 -- -- 60
2019-05-28 12:00:00 17.6 6 Sudoeste 18 Sudoeste 0 -- -- 60
2019-05-28 11:00:00 17.2 6 Sur 13 Sudoeste 0 -- -- 70
2019-05-28 10:00:00 17.8 3 Nordeste 9 Noroeste 0 -- -- 72
2019-05-28 09:00:00 16.8 3 Nordeste 15 Nordeste 0 -- -- 78
2019-05-28 08:00:00 15.5 3 Noroeste 8 Noroeste 0 -- -- 86
2019-05-28 07:00:00 14.1 0 Calma 5 Oeste 0 -- -- 91
2019-05-28 06:00:00 13.3 0 Calma 5 Nordeste 0 -- -- 91
2019-05-28 05:00:00 12.9 0 Calma 4 Nordeste 0 -- -- 91
2019-05-28 04:00:00 12 0 Calma 4 Nordeste 0 -- -- 90
2019-05-28 03:00:00 12.5 0 Calma 5 Noroeste 0 -- -- 90
2019-05-28 02:00:00 14.4 4 Nordeste 6 Nordeste 0 -- -- 89
2019-05-28 01:00:00 15.5 3 Sudoeste 4 Sudoeste 0 -- -- 89
2019-05-28 00:00:00 15.3 0 Calma 4 Sudoeste 0 -- -- 89
2019-05-27 23:00:00 15.5 0 Calma 7 Sudoeste 0 -- -- 89
2019-05-27 22:00:00 16.6 2 Sudoeste 9 Sudoeste 0 -- -- 84
2019-05-27 21:00:00 17.1 4 Sudoeste 10 Sudoeste 0 -- -- 84
2019-05-27 20:00:00 17.5 5 Sudoeste 17 Sudoeste 0 -- -- 84
2019-05-27 19:00:00 18.3 9 Sudoeste 21 Sudoeste 0 -- -- 70
2019-05-27 18:00:00 19.3 11 Sudoeste 28 Sudoeste 0 -- -- 64
2019-05-27 17:00:00 19.1 13 Sudoeste 22 Sur 0 -- -- 64
2019-05-27 16:00:00 20.3 11 Sudoeste 30 Sudoeste 0 -- -- 66
2019-05-27 15:00:00 20 14 Sudoeste 29 Sudoeste 0 -- -- 67
2019-05-27 14:00:00 20.9 12 Sudoeste 29 Sudoeste 0 -- -- 54
2019-05-27 13:00:00 22.2 15 Sudoeste 30 Sudoeste 0 -- -- 42
2019-05-27 12:00:00 21.3 12 Sudoeste 27 Sur 0 -- -- 44
2019-05-27 11:00:00 20.9 13 Sudoeste 24 Sudoeste 0 -- -- 46
2019-05-27 10:00:00 20 6 Sudoeste 14 Sudoeste 0 -- -- 51
2019-05-27 09:00:00 16 4 Nordeste 7 Este 0 -- -- 66
2019-05-27 08:00:00 13.3 4 Nordeste 8 Nordeste 0 -- -- 80
2019-05-27 07:00:00 10.9 3 Nordeste 6 Nordeste 0 -- -- 88
2019-05-27 06:00:00 10.5 5 Nordeste 9 Noroeste 0 -- -- 90
2019-05-27 05:00:00 10.8 3 Noroeste 7 Noroeste 0 -- -- 90
2019-05-27 04:00:00 10.5 3 Nordeste 5 Nordeste 0 -- -- 90
2019-05-27 03:00:00 10.9 0 Calma 6 Noroeste 0 -- -- 90
2019-05-27 02:00:00 11.2 0 Calma 5 Nordeste 0 -- -- 89
2019-05-27 01:00:00 11.7 4 Nordeste 6 Este 0 -- -- 87
2019-05-27 00:00:00 12 0 Calma 6 Nordeste 0 -- -- 88
2019-05-26 23:00:00 12.8 0 Calma 5 Nordeste 0 -- -- 86
2019-05-26 22:00:00 14.6 0 Calma 5 Nordeste 0 -- -- 82
2019-05-26 21:00:00 16.2 0 Calma 11 Sudoeste 0 -- -- 76
2019-05-26 20:00:00 20.7 3 Sudoeste -- -- -- -- -- 55
2019-05-26 19:00:00 22 9 Sudoeste 21 Sudoeste 0 -- -- 47
2019-05-26 18:00:00 21.8 8 Sudoeste 19 Sudoeste 0 -- -- 51
2019-05-26 17:00:00 19.7 8 Sudoeste 32 Sur 0 -- -- 62
2019-05-26 16:00:00 20.9 5 Sur 20 Sudoeste 0 -- -- 56
2019-05-26 15:00:00 20.4 6 Sudoeste 19 Sudoeste 0 -- -- 59
2019-05-26 14:00:00 24.5 10 Sudoeste 18 Sudoeste 0 -- -- 45
2019-05-26 13:00:00 21.1 7 Sudoeste 16 Sudoeste 0 -- -- 48
2019-05-26 12:00:00 20 5 Sudoeste 15 Sudoeste 0 -- -- 51
2019-05-26 11:00:00 19.4 0 Calma 6 Noroeste 0 -- -- 59
2019-05-26 10:00:00 17.9 2 Norte 19 Este 0 -- -- 64
2019-05-26 09:00:00 15.3 2 Nordeste 19 Nordeste 0 -- -- 78
2019-05-26 08:00:00 14 2 Nordeste 4 Nordeste 0 -- -- 89
2019-05-26 07:00:00 12.8 4 Nordeste 6 Nordeste 0 -- -- 89
2019-05-26 06:00:00 12.2 4 Nordeste 7 Nordeste 0 -- -- 90
2019-05-26 05:00:00 11.6 4 Nordeste 6 Nordeste 0 -- -- 91
2019-05-26 04:00:00 12 0 Calma 6 Nordeste 0 -- -- 91
2019-05-26 03:00:00 12.7 0 Calma 5 Nordeste 0 -- -- 91
2019-05-26 02:00:00 13.6 0 Calma 7 Oeste 0 -- -- 90
2019-05-26 01:00:00 14.7 0 Calma 4 Nordeste 0 -- -- 90
2019-05-26 00:00:00 14.6 0 Calma 6 Nordeste 0 -- -- 90
2019-05-25 23:00:00 14.8 2 Nordeste 5 Nordeste 0 -- -- 89
2019-05-25 22:00:00 15 2 Nordeste 4 Nordeste 0 -- -- 88
2019-05-25 21:00:00 16.6 0 Calma 5 Sudoeste 0 -- -- 84
2019-05-25 20:00:00 18.5 2 Sudoeste 17 Sudoeste 0 -- -- 71
2019-05-25 19:00:00 20.8 13 Sudoeste 25 Sur 0 -- -- 61
2019-05-25 18:00:00 21.3 14 Sudoeste 24 Sur 0 -- -- 59
2019-05-25 17:00:00 20.6 9 Sudoeste 19 Oeste 0 -- -- 57
2019-05-25 16:00:00 20 12 Sudoeste 23 Sudoeste 0 -- -- 64
2019-05-25 15:00:00 21 6 Nordeste 19 Nordeste 0 -- -- 60
2019-05-25 14:00:00 20.6 9 Nordeste 18 Nordeste 0 -- -- 57
2019-05-25 13:00:00 17.6 7 Nordeste 21 Nordeste 0 -- -- 71
2019-05-25 12:00:00 17.3 8 Norte 18 Nordeste 0 -- -- 75
2019-05-25 11:00:00 16.1 9 Norte 24 Noroeste 0 -- -- 84
2019-05-25 10:00:00 15.3 9 Norte 17 Norte 0.7 -- -- 91
2019-05-25 09:00:00 14.4 2 Oeste 6 Oeste 0.4 -- -- 91
2019-05-25 08:00:00 13.8 3 Noroeste 10 Nordeste 0.2 -- -- 91
2019-05-25 07:00:00 13.3 2 Nordeste 4 Nordeste 0.1 -- -- 91
2019-05-25 06:00:00 13 0 Calma 5 Oeste 0.2 -- -- 91
2019-05-25 05:00:00 13.2 0 Calma 5 Noroeste 0.1 -- -- 91
2019-05-25 04:00:00 13.1 0 Calma 3 Norte 0.1 -- -- 91
2019-05-25 03:00:00 13.2 0 Calma 4 Noroeste 0.1 -- -- 91
2019-05-25 02:00:00 13.2 0 Calma 4 Nordeste 0.1 -- -- 91
2019-05-25 01:00:00 13.5 0 Calma 4 Noroeste 0.2 -- -- 91
2019-05-25 00:00:00 13.8 0 Calma 3 Norte 0.1 -- -- 91
2019-05-24 23:00:00 14 0 Calma 4 Noroeste 0.2 -- -- 91
2019-05-24 22:00:00 14.1 0 Calma 4 Norte 0.6 -- -- 91
2019-05-24 21:00:00 14.4 0 Calma 4 Noroeste 0.1 -- -- 91
2019-05-24 20:00:00 14.6 0 Calma 4 Noroeste 0 -- -- 91
2019-05-24 19:00:00 14.5 2 Noroeste 9 Norte 0 -- -- 91
2019-05-24 18:00:00 14.7 4 Noroeste 10 Oeste 0.1 -- -- 91
2019-05-24 17:00:00 15 2 Norte 7 Sudoeste 0.2 -- -- 91
2019-05-24 16:00:00 14.8 0 Calma 6 Norte 0.4 -- -- 91
2019-05-24 15:00:00 14.4 0 Calma 13 Sudoeste 1.6 -- -- 91
2019-05-24 14:00:00 15.5 3 Sudoeste 11 Sudoeste 1.1 -- -- 90
2019-05-24 13:00:00 17.2 7 Sudoeste 11 Sudoeste 0.2 -- -- 82
2019-05-24 12:00:00 17.8 0 Calma 6 Sur 0.1 -- -- 76
2019-05-24 11:00:00 17.9 6 Sudoeste 14 Sur 0 -- -- 60
2019-05-24 10:00:00 18.7 0 Calma 12 Oeste 0 -- -- 61
2019-05-24 09:00:00 15.4 0 Calma 4 Noroeste 0 -- -- 89
2019-05-24 08:00:00 13.9 0 Calma 4 Noroeste 0 -- -- 91
2019-05-24 07:00:00 12.8 0 Calma 5 Oeste 0 -- -- 91
2019-05-24 06:00:00 12.6 0 Calma 5 Oeste 0 -- -- 91
2019-05-24 05:00:00 12.6 0 Calma 3 Nordeste 0 -- -- 91
2019-05-24 04:00:00 13.2 0 Calma 4 Nordeste 0 -- -- 91
2019-05-24 03:00:00 13.6 0 Calma 5 Noroeste 0 -- -- 91
2019-05-24 02:00:00 14.3 0 Calma 5 Noroeste 0 -- -- 90
2019-05-24 01:00:00 14.8 0 Calma 4 Sur 0 -- -- 90
2019-05-24 00:00:00 15.6 0 Calma 10 Sudoeste 0 -- -- 90
2019-05-23 23:00:00 16.7 2 Sur 12 Sur 0 -- -- 89
2019-05-23 22:00:00 16.9 3 Sur 18 Sudoeste 0 -- -- 87
2019-05-23 21:00:00 17.6 7 Sudoeste 16 Sur 0 -- -- 84
2019-05-23 20:00:00 18.3 10 Sudoeste 25 Sudoeste 0 -- -- 80
2019-05-23 19:00:00 18.5 12 Sur 27 Sudoeste 0 -- -- 80
2019-05-23 18:00:00 20 15 Sudoeste 31 Sudoeste 0 -- -- 71
2019-05-23 17:00:00 20.1 15 Sur 34 Sudoeste 0 -- -- 72
2019-05-23 16:00:00 20 18 Sudoeste 37 Sudoeste 0 -- -- 61
2019-05-23 15:00:00 21 18 Sudoeste 33 Sudoeste 0 -- -- 53
2019-05-23 14:00:00 21 14 Sudoeste 27 Sudoeste 0 -- -- 54
2019-05-23 13:00:00 21 10 Sudoeste 21 Sudoeste 0 -- -- 52
2019-05-23 12:00:00 22.3 8 Sudoeste 19 Sudoeste 0 -- -- 41
2019-05-23 11:00:00 20.9 8 Sudoeste 15 Sudoeste 0 -- -- 51
2019-05-23 10:00:00 19 3 Sur 10 Oeste 0 -- -- 56
2019-05-23 09:00:00 14.4 5 Este 12 Este 0 -- -- 86
2019-05-23 08:00:00 10.8 0 Calma 4 Nordeste 0 -- -- 91
2019-05-23 07:00:00 9.2 0 Calma 5 Nordeste 0 -- -- 91
2019-05-23 06:00:00 9 0 Calma 5 Nordeste 0 -- -- 91
2019-05-23 05:00:00 9.3 2 Nordeste 4 Nordeste 0 -- -- 91
2019-05-23 04:00:00 9.9 0 Calma 5 Noroeste 0 -- -- 91
2019-05-23 03:00:00 10.7 0 Calma 5 Nordeste 0 -- -- 91
2019-05-23 02:00:00 11.6 4 Nordeste 6 Nordeste 0 -- -- 91
2019-05-23 01:00:00 12.1 0 Calma 5 Noroeste 0 -- -- 90
2019-05-23 00:00:00 13.2 0 Calma 6 Norte 0 -- -- 89
2019-05-22 23:00:00 15.4 0 Calma 7 Nordeste 0 -- -- 85
2019-05-22 22:00:00 16.4 0 Calma 14 Sur 0 -- -- 81
2019-05-22 21:00:00 16.8 6 Sur 24 Sur 0 -- -- 80
2019-05-22 20:00:00 17.5 17 Sudoeste 26 Sur 0 -- -- 76
2019-05-22 19:00:00 18.4 15 Sudoeste 31 Sur 0 -- -- 70
2019-05-22 18:00:00 19.4 17 Sudoeste 28 Sudoeste 0 -- -- 65
2019-05-22 17:00:00 20.1 17 Sudoeste 32 Sudoeste 0 -- -- 57
2019-05-22 16:00:00 20.9 19 Sudoeste 30 Sudoeste 0 -- -- 51
2019-05-22 15:00:00 20.8 19 Sudoeste 31 Sudoeste 0 -- -- 54
2019-05-22 14:00:00 20.1 18 Sudoeste 29 Sudoeste 0 -- -- 56
2019-05-22 13:00:00 21.2 14 Sudoeste 23 Sudoeste 0 -- -- 52
2019-05-22 12:00:00 20.2 11 Sur 22 Sudoeste 0 -- -- 51
2019-05-22 11:00:00 19.6 9 Sudoeste 19 Sudoeste 0 -- -- 58
2019-05-22 10:00:00 18.3 6 Sudoeste 13 Sudoeste 0 -- -- 70
2019-05-22 09:00:00 13.8 0 Calma 5 Sudeste 0 -- -- 91
2019-05-22 08:00:00 11.5 0 Calma 4 Norte 0 -- -- 91
2019-05-22 07:00:00 10 0 Calma 6 Nordeste 0 -- -- 91
2019-05-22 06:00:00 10 0 Calma 5 Nordeste 0 -- -- 91
2019-05-22 05:00:00 10.7 3 Nordeste 4 Nordeste 0 -- -- 91
2019-05-22 04:00:00 10.9 2 Nordeste 5 Oeste 0 -- -- 91
2019-05-22 03:00:00 11.6 0 Calma 5 Nordeste 0 -- -- 91
2019-05-22 02:00:00 12.7 0 Calma 4 Nordeste 0 -- -- 90
2019-05-22 01:00:00 13.7 0 Calma 6 Oeste 0 -- -- 89
2019-05-22 00:00:00 14.3 0 Calma 5 Nordeste 0 -- -- 89